Extreme weather reports worldwide

Rain

Station
 
Location
 
Name
 
Wind
Knots
Gust
Knots
Vis
SM
Temp/Dew
C
Baro
inHg
METAR
 
PQC VVPQ Phu Quoc Island, VN Phu Quoc International Airport 15 26 3.73 25/24 29.73 VVPQ 151400Z 31015G26KT 290V350 6000 TSRA SCT013 FEW015CB BKN040 25/24 Q1007 TEMPO TL1500 29015G30KT 3000 TSRA
CDB PACD Cold Bay, US Cold Bay Airport 20 25 7/6 29.84 PACD 151353Z AUTO 26020G25KT 10SM -RA OVC009 08/07 A2984 RMK AO2 CIG 007V012 SLP105 P0003 T00780067 TSNO $
IXE VOML Mangalore, IN Mangalore International Airport 18 25 1.55 25/24 29.68 VOML 151400Z 23018G25KT 2500 -RA BR SCT002 SCT012 OVC080 25/24 Q1005 NOSIG
DTW KDTW Detroit, US Detroit Metropolitan Wayne County Airport 16 24 5 22/19 29.85 KDTW 151353Z 25016G24KT 5SM -RA FEW015 BKN028 OVC035 22/19 A2985 RMK AO2 RAB51 SLP106 P0000 T02220194
SYT LFLN Saint-Yan, FR Saint-Yan Airport 12 23 21/18 29.82 LFLN 151400Z AUTO 27012G23KT 220V300 9999 TSRA ///CB 21/18 Q1010 TEMPO VRB20G45KT 3000 TSRA

Station
 
Location
 
Name
 
Wind
Knots
Gust
Knots
Vis
SM
Temp/Dew
C
Baro
inHg
METAR
 
CWGZ 13 22 6 6/1 29.41 CWGZ 151400Z 09013G22KT 060V150 6SM -RA BR SCT008 BKN014 BKN026 OVC035 06/01 A2941 RMK FG1ST2ST2SC2SC1 SLP966
PTK KPTK Pontiac, US Oakland County International Airport 9 18 2 20/18 29.83 KPTK 151353Z 30009G18KT 250V330 2SM R09R/4000VP6000FT +RA BR SCT008 BKN018 OVC036 20/18 A2983 RMK AO2 RAB13 SLP096 VIS 1V3 P0016 T02000183
KBDH 11 17 20/18 29.79 KBDH 151415Z AUTO 14011G17KT 10SM -RA CLR 20/18 A2979 RMK AO2
CJB VOCB Coimbatore, IN Coimbatore International Airport 7 17 2.17 24/22 29.73 VOCB 151400Z 24007G17KT 3500 -RA SCT008 SCT012 OVC080 24/22 Q1007 TEMPO 3000 RA
YIV CYIV Island Lake, CA Island Lake Airport 10 15 9 14/14 29.76 CYIV 151400Z AUTO 36010G15KT 9SM -RA SCT012 BKN026 BKN040 OVC071 14/14 A2976 RMK PCPN 0.5MM PAST HR SLP085 DENSITY ALT 1100FT
YKL CYKL Schefferville, CA Schefferville Airport 8 15 9 13/12 29.67 CYKL 151400Z AUTO 14008G15KT 110V180 9SM -RA FEW028 SCT240 13/12 A2967 RMK PCPN 1.0MM PAST HR SLP057 DENSITY ALT 2200FT
MLL PADM Marshall, US Marshall Don Hunter Sr Airport 7 15 7/7 29.62 PADM 151415Z AUTO 21007G15KT 10SM -RA OVC007 07/07 A2962 RMK AO2 CIG 005V010 P0002
KSGS South St Paul, US South St Paul Municipal Richard E Fleming field 10 14 5 22/20 29.88 KSGS 151415Z AUTO 22010G14KT 5SM VCTSRA SCT085 OVC100 22/20 A2988 RMK AO2 P0004 T02200204
MEL YMML Melbourne, AU Melbourne International Airport 23 1.86 9/8 29.56 YMML 151400Z 25023KT 3000 -RA DZ BKN010 OVC017 09/08 Q1001 RF00/4/002/8
PHO PAPO Point Hope, US Point Hope Airport 19 6 3/3 29.57 PAPO 151356Z AUTO 02019KT 6SM -RA BR OVC016 04/03 A2957 RMK AO2 RAB01 SLP011 P0001 T00390033
RAP KRAP Rapid City, US Rapid City Regional Airport 17 23/15 30.00 KRAP 151352Z 01017KT 10SM -RA OVC110 23/15 A3000 RMK AO2 RAB52 SLP125 P0000 T02330150
BRW PABR Utqiaġvik, US Wiley Post Will Rogers Memorial Airport 17 2/-1 29.61 PABR 151353Z 04017KT 10SM -RA OVC005 02/M01 A2961
AVV YMAV Melbourne, AU Avalon Airport 17 1.18 10/9 29.56 YMAV 151400Z AUTO 26017KT 1900 -RA SCT007 BKN012 OVC016 10/09 Q1001
WAA PAIW Wales, US Wales Airport 16 4 4/3 PAIW 151356Z AUTO 35016KT 4SM -RA BR OVC007 04/04 RMK AO2 SLPNO T00440039 PNO $
JDO SBJU Juazeiro Do Norte, BR Orlando Bezerra de Menezes Airport 16 4.97 23/19 30.15 SBJU 151400Z 15016KT 8000 -RA SCT018 BKN020 23/19 Q1021
ACI EGJA Saint Anne, GG Alderney Airport 15 17/16 29.68 EGJA 151350Z 17015KT 9999 -SHRA SCT004 BKN032 17/16 Q1005
MOU PAMO Mountain Village, US Mountain Village Airport 14 3 5/5 29.57 PAMO 151404Z AUTO 28014KT 3SM -RA BR OVC004 05/05 A2957 RMK AO2 P0000
SCM PACM Scammon Bay, US Scammon Bay Airport 14 8 6/6 29.61 PACM 151356Z AUTO 27014KT 8SM -RA OVC011 07/07 A2961 RMK AO2 SLP025 P0000 T00670067
PIZ PPIZ Point Lay, US Point Lay LRRS Airport 14 6 3/2 29.63 PPIZ 151356Z AUTO 03014KT 6SM -RA BR OVC009 03/03 A2963 RMK AO2 CIG 005V013 SLP036 P0005 T00330028
VAK PAVA Chevak, US Chevak Airport 14 6/5 29.61 PAVA 151356Z AUTO 27014KT 10SM -RA OVC006 07/06 A2961 RMK AO2 RAB13 SLP032 T00670056 PNO $
TMP EFTP Tampere / Pirkkala, FI Tampere-Pirkkala Airport 13 2.61 16/14 29.97 EFTP 151420Z AUTO 27013KT 4200 +SHRA BKN031 //////CB 16/14 Q1015
K21D 13 21/20 29.84 K21D 151415Z AUTO 19013KT 10SM -RA SCT070 SCT095 BKN110 21/20 A2984 RMK AO2 LTG DSNT W P0001
FCM KFCM Minneapolis, US Flying Cloud Airport 13 3 21/19 29.84 KFCM 151410Z 19013KT 3SM VCTS -RA BR FEW050 BKN095 OVC110 22/19 A2984 RMK AO2 LTG DSNT SW P0002 T02170194
IPC SCIP Isla De Pascua, CL Mataveri Airport 12 3.11 19/19 30.06 SCIP 151400Z 33012KT 5000 -RA BKN003 OVC012 19/19 Q1018 NOSIG
HUY EGNJ Grimsby, GB Humberside Airport 12 20/15 29.79 EGNJ 151350Z 09012KT 9999 -SHRA SCT023 20/15 Q1009
KGHW Glenwood, US Glenwood Municipal Airport 12 19/18 29.78 KGHW 151415Z AUTO 16012KT 10SM -RA CLR 19/18 A2978 RMK AO2
JNU PAJN Juneau, US Juneau International Airport 12 7 12/12 29.94 PAJN 151353Z 10012KT 7SM -RA FEW005 SCT025 OVC045 13/13 A2994 RMK AO2 SLP140 P0002 T01280128 $
MSP KMSP Minneapolis, US Minneapolis-St Paul International/Wold-Chamberlain Airport 12 8 22/18 29.88 KMSP 151407Z 22012KT 8SM VCTS -RA BKN100CB OVC120 22/19 A2988 RMK AO2 LTG DSNT W VCTS S-W MOV SE P0002 T02220189
MTC KMTC Mount Clemens, US Selfridge Air National Guard Base Airport 12 5 25/20 29.79 KMTC 151405Z 20012KT 5SM -RA BKN042 BKN050 BKN080 OVC110 25/20 A2979 RMK AO2A LTG DSNT NW AND NE CB 12NW AND 12NE MOV NE SLP088 $
KVC PAVC King Cove, US King Cove Airport 12 / 29.86 PAVC 151356Z AUTO 23012KT 10SM -RA FEW021 OVC037 A2986 RMK AO2 SLPNO FZRANO PNO $
ATK PATQ Atqasuk, US Atqasuk Edward Burnell Sr Memorial Airport 11 6 1/1 29.58 PATQ 151356Z AUTO 04011KT 6SM -RA BR BKN008 OVC014 02/01 A2958 RMK AO2 CIG 004V010 SLP022 P0002 T00170011 FZRANO TSNO
ZUM CZUM Churchill Falls, CA Churchill Falls Airport 11 9 13/11 29.76 CZUM 151400Z AUTO 12011KT 9SM -RA OVC066 13/11 A2976 RMK SLP088 DENSITY ALT 1800FT
CER LFRC Cherbourg/Maupertus, FR Cherbourg-Maupertus Airport 11 3.11 18/17 29.70 LFRC 151400Z AUTO 20011KT 180V240 5000 -RA BR SCT019/// SCT030/// BKN038/// //////TCU 18/17 Q1006 TEMPO SHRA BKN012 BKN020CB BECMG 26015G30KT
EGDM Amesbury, GB MoD Boscombe Down Airport 11 16/15 29.70 EGDM 151350Z 13011KT 9999 -RA FEW008 OVC035 16/15 Q1006 TEMPO 6000 RA SCT008 RMK BLU TEMPO GRN
GOU FKKR Garoua, CM Garoua International Airport 11 0.5 25/25 29.88 FKKR 151400Z 16011KT 0800 +TSRA BKN006 FEW012CB 25/25 Q1012 TEMPO 080/25KT 800 +TSRA
ESIB Såtenäs, SE Såtenäs Air Base 11 17/15 29.79 ESIB 151350Z AUTO 15011KT 9999 -DZRA SCT012/// BKN027/// BKN051/// OVC190/// 17/15 Q1009 REDZRA
CZF PACZ Cape Romanzof, US Cape Romanzof LRRS Airport 10 5/4 29.59 PACZ 151355Z AUTO 33010KT 10SM -SHRA OVC006 05/04 A2959 RMK AO2 SHRAB1316 SLP023 P0001 T00500040
EGYE Grantham, GB RAF Barkston Heath 10 19/15 29.79 EGYE 151350Z 11010KT 9999 -RA FEW038 SCT095 19/15 Q1009 RMK BLU
EGYD Cranwell, GB RAF Cranwell 10 19/15 29.76 EGYD 151350Z 11010KT 9999 -RA FEW054 BKN084 BKN110 19/15 Q1008 NOSIG RMK BLU BLU
CKY GUCY Conakry, GN Conakry International Airport 10 4.97 27/25 29.97 GUCY 151400Z 17010KT 8000 -RA BKN013 BKN100 27/25 Q1015 NOSIG
QCY EGXC Coningsby, GB RAF Coningsby 10 19/14 29.76 EGXC 151350Z 10010KT 9999 -RA FEW032 SCT080 BKN170 19/14 Q1008 NOSIG RMK BLU BLU
AES ENAL Ålesund, NO Ålesund Airport 10 15/14 29.73 ENAL 151420Z 26010KT 9999 -RA FEW005 SCT007 BKN053 15/14 Q1007 REDZ
LFRL Lanvéoc/Poulmic, FR Lanvéoc-Poulmic Air Base 10 17/14 29.73 LFRL 151400Z AUTO 24010KT 9999 -RA FEW015 SCT054 BKN072 17/14 Q1007 TEMPO 4000 SHRA BKN007 BKN012TCU BECMG 30008KT
MZI GAMB ML Mopti Airport 10 23/23 29.91 GAMB 151400Z 22010KT 9999 TSRA FEW030 FEW040CB 23/23 Q1013
BRS EGGD Bristol, GB Bristol Airport 10 1.06 15/15 29.68 EGGD 151350Z AUTO 10010KT 1700 -RA BKN003 OVC010 15/15 Q1005